Time;durP1;ratioP1;P1;durP2;ratioP2;P2;SDS_P1;SDS_P2;PMS_P1;PMS_P2;Temp;Humidity;BMP_temperature;BMP_pressure;BME280_temperature;BME280_humidity;BME280_pressure;Samples;Min_cycle;Max_cycle;Signal;HPM_P1;HPM_P2
2022/12/08 00:00:00;;;;;;;105.60;68.95;;;6.80;99.90;;;;;;4938228;29;20138;-80
2022/12/08 00:02:27;;;;;;;91.45;60.38;;;6.90;99.90;;;;;;4935071;29;20058;-80
2022/12/08 00:10:24;;;;;;;57.28;39.97;;;6.90;99.90;;;;;;4947338;29;20047;-79
2022/12/08 00:12:54;;;;;;;51.22;37.95;;;6.80;99.90;;;;;;4941930;29;20043;-80
2022/12/08 00:15:21;;;;;;;45.03;32.22;;;6.80;99.90;;;;;;4935245;29;20742;-80
2022/12/08 00:17:49;;;;;;;34.33;23.88;;;6.80;99.90;;;;;;4935040;29;20055;-81
2022/12/08 00:20:16;;;;;;;33.15;22.73;;;6.80;99.90;;;;;;4935179;29;20125;-80
2022/12/08 00:22:44;;;;;;;40.80;27.27;;;6.80;99.90;;;;;;4952139;29;20035;-81
2022/12/08 00:25:13;;;;;;;43.22;29.88;;;6.90;99.90;;;;;;4952176;29;20039;-79
2022/12/08 00:27:40;;;;;;;42.78;29.85;;;6.90;99.90;;;;;;4952190;29;20070;-79
2022/12/08 00:30:10;;;;;;;50.58;36.30;;;6.90;99.90;;;;;;4952694;29;20043;-81
2022/12/08 00:32:38;;;;;;;57.80;38.15;;;6.90;99.90;;;;;;4950384;29;20070;-79
2022/12/08 00:35:06;;;;;;;46.90;32.35;;;6.80;99.90;;;;;;4936666;29;20072;-80
2022/12/08 00:37:33;;;;;;;51.42;34.22;;;6.80;99.90;;;;;;4959269;29;20039;-80
2022/12/08 00:40:01;;;;;;;64.75;43.78;;;6.70;99.90;;;;;;4925412;29;20443;-79
2022/12/08 00:42:28;;;;;;;68.90;45.88;;;6.70;99.90;;;;;;4952860;29;20110;-80
2022/12/08 00:44:55;;;;;;;67.30;43.08;;;6.70;99.90;;;;;;4952272;29;20040;-80
2022/12/08 00:47:24;;;;;;;61.53;40.72;;;6.80;99.90;;;;;;4952507;29;20098;-79
2022/12/08 00:49:52;;;;;;;45.40;31.02;;;6.70;99.90;;;;;;4936273;29;20051;-80
2022/12/08 00:52:19;;;;;;;52.10;34.00;;;6.80;99.90;;;;;;4953015;29;20043;-80
2022/12/08 00:54:48;;;;;;;49.30;33.17;;;6.80;99.90;;;;;;4936603;29;20051;-78
2022/12/08 00:57:15;;;;;;;47.55;32.45;;;6.90;99.90;;;;;;4954923;29;20071;-80
2022/12/08 00:59:43;;;;;;;48.40;32.30;;;7.00;99.90;;;;;;4968837;29;20062;-80
2022/12/08 01:02:18;;;;;;;50.60;34.50;;;7.00;99.90;;;;;;4974400;29;20028;-81
2022/12/08 01:04:47;;;;;;;52.92;34.00;;;7.10;99.90;;;;;;4967660;29;20047;-80
2022/12/08 01:07:14;;;;;;;58.25;38.42;;;7.10;99.90;;;;;;4935866;29;20114;-79
2022/12/08 01:09:41;;;;;;;64.22;39.08;;;7.20;99.90;;;;;;4953081;29;20057;-79
2022/12/08 01:12:09;;;;;;;56.55;37.60;;;7.20;99.90;;;;;;4953056;29;20047;-78
2022/12/08 01:14:38;;;;;;;55.70;36.65;;;7.20;99.90;;;;;;4953789;29;20042;-79
2022/12/08 01:17:07;;;;;;;55.05;36.83;;;7.10;99.90;;;;;;4936693;29;20415;-81
2022/12/08 01:19:34;;;;;;;61.20;38.65;;;7.10;99.90;;;;;;4941937;29;20047;-78
2022/12/08 01:22:03;;;;;;;64.18;41.47;;;7.00;99.90;;;;;;4953814;29;20036;-79
2022/12/08 01:24:30;;;;;;;61.92;42.08;;;7.00;99.90;;;;;;4954155;29;20039;-80
2022/12/08 01:26:58;;;;;;;61.78;39.60;;;7.00;99.90;;;;;;4953052;29;20483;-81
2022/12/08 01:29:26;;;;;;;69.80;45.70;;;6.90;99.90;;;;;;4970538;28;20103;-81
2022/12/08 01:31:53;;;;;;;60.70;40.78;;;6.80;99.90;;;;;;4975885;29;20055;-80
2022/12/08 01:34:21;;;;;;;78.65;51.47;;;6.80;99.90;;;;;;4958402;29;20043;-79
2022/12/08 01:36:48;;;;;;;85.30;56.53;;;6.80;99.90;;;;;;4969258;29;20071;-81
2022/12/08 01:39:19;;;;;;;85.28;56.30;;;6.80;99.90;;;;;;4955265;29;20047;-79
2022/12/08 01:41:47;;;;;;;90.20;59.70;;;6.80;99.90;;;;;;4966397;29;20118;-82
2022/12/08 01:44:56;;;;;;;83.78;54.25;;;7.00;99.90;;;;;;4952369;29;20043;-82
2022/12/08 01:47:26;;;;;;;84.55;57.15;;;7.00;99.90;;;;;;4953924;28;20046;-83
2022/12/08 01:49:53;;;;;;;83.32;53.22;;;6.90;99.90;;;;;;4938456;29;20047;-80
2022/12/08 01:52:25;;;;;;;83.20;54.25;;;6.90;99.90;;;;;;4937882;29;20050;-82
2022/12/08 01:54:57;;;;;;;80.20;51.88;;;7.00;99.90;;;;;;4957235;29;20051;-82
2022/12/08 01:57:29;;;;;;;74.32;50.45;;;7.00;99.90;;;;;;4937383;29;20306;-82
2022/12/08 02:00:00;;;;;;;64.70;45.90;;;7.00;99.90;;;;;;4945890;29;20056;-81
2022/12/08 02:02:34;;;;;;;71.05;47.50;;;7.00;99.90;;;;;;4976366;29;20067;-82
2022/12/08 02:05:03;;;;;;;63.97;43.20;;;7.00;99.90;;;;;;4977753;29;20087;-80
2022/12/08 02:07:31;;;;;;;56.03;38.50;;;7.10;99.90;;;;;;4977601;29;20070;-81
2022/12/08 02:10:00;;;;;;;50.40;34.47;;;7.10;99.90;;;;;;4976725;29;20070;-81
2022/12/08 02:12:28;;;;;;;49.58;34.70;;;7.10;99.90;;;;;;4951994;29;20043;-80
2022/12/08 02:14:55;;;;;;;53.97;37.35;;;7.20;99.90;;;;;;4977376;29;20054;-81
2022/12/08 02:17:39;;;;;;;63.03;41.50;;;7.30;99.90;;;;;;4976614;29;20099;-80
2022/12/08 02:20:34;;;;;;;75.32;50.42;;;7.30;99.90;;;;;;4976910;28;20094;-80
2022/12/08 02:23:13;;;;;;;77.35;51.65;;;7.20;99.90;;;;;;4976813;29;20045;-81
2022/12/08 02:25:56;;;;;;;72.03;48.65;;;7.20;99.90;;;;;;4978485;28;20042;-81
2022/12/08 02:28:47;;;;;;;80.03;55.78;;;7.20;99.90;;;;;;4977323;28;20102;-81
2022/12/08 02:31:26;;;;;;;76.90;55.03;;;7.20;99.90;;;;;;4976242;29;20054;-80
2022/12/08 02:34:06;;;;;;;87.40;57.75;;;7.20;99.90;;;;;;4974148;29;20062;-80
2022/12/08 02:36:42;;;;;;;79.97;55.53;;;7.20;99.90;;;;;;4962854;29;20491;-82
2022/12/08 02:39:19;;;;;;;82.55;54.70;;;7.10;99.90;;;;;;4971813;29;20079;-82
2022/12/08 02:41:53;;;;;;;76.95;52.92;;;7.00;99.90;;;;;;4966867;29;20063;-80
2022/12/08 02:44:29;;;;;;;93.25;60.80;;;7.00;99.90;;;;;;4965114;29;20051;-82
2022/12/08 02:46:59;;;;;;;84.93;59.33;;;7.10;99.90;;;;;;4979680;23;20062;-80
2022/12/08 02:49:31;;;;;;;85.05;58.35;;;7.20;99.90;;;;;;4983801;28;20073;-79
2022/12/08 02:52:42;;;;;;;79.65;53.53;;;7.20;99.90;;;;;;4966515;28;20046;-80
2022/12/08 02:55:19;;;;;;;76.13;50.88;;;7.20;99.90;;;;;;4989225;28;20119;-81
2022/12/08 02:58:04;;;;;;;81.80;55.30;;;7.30;99.90;;;;;;4988196;28;20431;-80
2022/12/08 03:00:43;;;;;;;84.15;56.47;;;7.20;99.90;;;;;;4986929;28;20096;-80
2022/12/08 03:03:17;;;;;;;74.32;51.42;;;7.10;99.90;;;;;;4983391;28;20146;-79
2022/12/08 03:06:01;;;;;;;72.68;49.13;;;7.10;99.90;;;;;;4982998;28;20395;-81
2022/12/08 03:08:35;;;;;;;72.80;49.88;;;7.10;99.90;;;;;;4985627;28;20502;-80
2022/12/08 03:11:09;;;;;;;69.50;47.83;;;7.10;99.90;;;;;;4966394;28;20403;-80
2022/12/08 03:13:40;;;;;;;75.97;50.72;;;7.10;99.90;;;;;;4982613;28;20101;-80
2022/12/08 03:16:10;;;;;;;73.03;50.38;;;7.10;99.90;;;;;;4986325;28;20054;-80
2022/12/08 03:18:45;;;;;;;78.70;52.13;;;7.10;99.90;;;;;;4989140;28;20071;-80
2022/12/08 03:21:17;;;;;;;71.40;47.50;;;7.00;99.90;;;;;;4973756;28;20414;-80
2022/12/08 03:23:48;;;;;;;67.25;44.90;;;7.00;99.90;;;;;;4983878;28;20410;-81
2022/12/08 03:26:20;;;;;;;53.40;37.75;;;7.00;99.90;;;;;;4986351;28;20045;-81
2022/12/08 03:28:47;;;;;;;53.38;38.40;;;7.00;99.90;;;;;;4964941;28;20047;-81
2022/12/08 03:31:17;;;;;;;49.78;34.20;;;6.90;99.90;;;;;;4979340;28;20042;-81
2022/12/08 03:33:48;;;;;;;48.95;32.55;;;6.90;99.90;;;;;;4983448;28;20042;-81
2022/12/08 03:36:18;;;;;;;43.13;28.90;;;6.90;99.90;;;;;;4983415;28;20129;-81
2022/12/08 03:38:47;;;;;;;42.05;28.60;;;6.80;99.90;;;;;;4981742;28;20100;-81
2022/12/08 03:41:22;;;;;;;44.90;31.20;;;6.80;99.90;;;;;;4990007;28;20046;-81
2022/12/08 03:43:53;;;;;;;52.70;36.53;;;6.80;99.90;;;;;;5003812;28;20042;-81
2022/12/08 03:46:22;;;;;;;50.80;35.35;;;6.90;99.90;;;;;;5002908;28;20051;-81
2022/12/08 03:48:50;;;;;;;42.30;29.10;;;6.90;99.90;;;;;;4995964;28;20072;-80
2022/12/08 03:51:19;;;;;;;41.67;28.42;;;6.90;99.90;;;;;;4996284;28;20039;-81
2022/12/08 03:53:47;;;;;;;40.35;26.52;;;6.90;99.90;;;;;;4979913;28;20050;-81
2022/12/08 03:56:19;;;;;;;40.17;27.48;;;6.80;99.90;;;;;;4982619;28;20043;-81
2022/12/08 03:58:48;;;;;;;39.58;29.25;;;6.90;99.90;;;;;;5006628;28;20044;-81
2022/12/08 04:01:16;;;;;;;34.15;23.88;;;6.90;99.90;;;;;;5003959;28;20038;-81
2022/12/08 04:03:43;;;;;;;28.85;19.98;;;7.00;99.90;;;;;;4989854;28;20043;-81
2022/12/08 04:06:36;;;;;;;30.73;21.65;;;7.00;99.90;;;;;;4964120;28;20053;-80
2022/12/08 04:09:04;;;;;;;37.50;26.40;;;7.10;99.90;;;;;;4981148;28;20039;-82
2022/12/08 04:11:31;;;;;;;35.85;25.45;;;7.10;99.90;;;;;;4977463;28;20101;-80
2022/12/08 04:14:11;;;;;;;38.63;27.48;;;7.20;99.90;;;;;;4973413;28;20038;-80
2022/12/08 04:16:39;;;;;;;36.83;25.63;;;7.10;99.90;;;;;;4983565;28;20044;-80
2022/12/08 04:19:06;;;;;;;34.72;23.52;;;7.10;99.90;;;;;;4984125;28;20076;-80
2022/12/08 04:21:36;;;;;;;28.88;20.63;;;7.20;99.90;;;;;;4982919;28;20129;-82
2022/12/08 04:24:04;;;;;;;30.33;21.98;;;7.20;99.90;;;;;;4980180;28;20065;-81
2022/12/08 04:26:31;;;;;;;33.35;24.15;;;7.20;99.90;;;;;;4981061;28;20129;-81
2022/12/08 04:28:58;;;;;;;42.33;28.60;;;7.10;99.90;;;;;;4981052;28;20049;-81
2022/12/08 04:31:26;;;;;;;42.45;29.70;;;7.00;99.90;;;;;;4981888;28;20057;-82
2022/12/08 04:33:53;;;;;;;45.13;30.00;;;7.10;99.90;;;;;;4982527;28;20457;-81
2022/12/08 04:36:20;;;;;;;39.95;28.42;;;7.10;99.90;;;;;;4963638;28;20098;-81
2022/12/08 04:38:49;;;;;;;39.15;26.92;;;7.10;99.90;;;;;;4965278;28;20089;-82
2022/12/08 04:41:17;;;;;;;41.28;28.38;;;7.10;99.90;;;;;;4980813;28;20501;-82
2022/12/08 04:43:44;;;;;;;42.50;29.25;;;7.10;99.90;;;;;;4964068;28;20573;-81
2022/12/08 04:46:12;;;;;;;36.08;25.77;;;7.10;99.90;;;;;;4983822;28;20065;-82
2022/12/08 04:48:40;;;;;;;37.08;27.67;;;7.10;99.90;;;;;;4981505;28;20050;-82
2022/12/08 04:51:12;;;;;;;42.55;29.50;;;7.10;99.90;;;;;;4964113;28;20548;-82
2022/12/08 04:53:39;;;;;;;49.80;36.03;;;7.10;99.90;;;;;;4989320;28;20129;-82
2022/12/08 04:56:13;;;;;;;45.00;31.63;;;7.10;99.90;;;;;;4981211;28;20066;-84
2022/12/08 04:58:42;;;;;;;50.95;32.78;;;7.00;99.90;;;;;;4986236;28;20035;-82
2022/12/08 05:01:10;;;;;;;57.03;37.88;;;7.00;99.90;;;;;;4989462;28;20482;-81
2022/12/08 05:03:37;;;;;;;65.50;43.88;;;6.90;99.90;;;;;;4976889;28;20046;-81
2022/12/08 05:06:06;;;;;;;58.22;39.97;;;6.80;99.90;;;;;;4965845;28;20047;-82
2022/12/08 05:08:34;;;;;;;60.80;42.13;;;6.80;99.90;;;;;;5004735;28;20141;-83
2022/12/08 05:11:05;;;;;;;61.20;41.78;;;6.70;99.90;;;;;;4971405;28;20050;-82
2022/12/08 05:13:34;;;;;;;62.65;42.40;;;6.70;99.90;;;;;;4984104;28;20093;-81
2022/12/08 05:16:08;;;;;;;57.13;41.40;;;6.80;99.90;;;;;;4980873;28;20093;-80
2022/12/08 05:18:36;;;;;;;64.30;42.78;;;6.80;99.90;;;;;;4980963;28;20038;-81
2022/12/08 05:21:05;;;;;;;70.75;46.90;;;6.90;99.90;;;;;;4983236;28;20125;-80
2022/12/08 05:23:33;;;;;;;66.28;45.45;;;6.90;99.90;;;;;;4985200;28;20566;-81
2022/12/08 05:26:01;;;;;;;66.78;46.22;;;7.00;99.90;;;;;;4983855;28;20055;-81
2022/12/08 05:28:30;;;;;;;69.35;46.40;;;7.00;99.90;;;;;;4969660;28;20050;-82
2022/12/08 05:31:00;;;;;;;69.30;46.63;;;7.10;99.90;;;;;;4988293;28;20354;-81
2022/12/08 05:33:31;;;;;;;63.97;43.83;;;7.10;99.90;;;;;;4983173;28;20510;-82
2022/12/08 05:35:58;;;;;;;55.97;38.92;;;7.10;99.90;;;;;;4985375;28;20042;-82
2022/12/08 05:38:26;;;;;;;60.15;40.88;;;7.10;99.90;;;;;;4985631;28;20434;-81
2022/12/08 05:40:55;;;;;;;64.47;41.13;;;7.10;99.90;;;;;;4995113;28;20042;-82
2022/12/08 05:43:23;;;;;;;96.20;54.00;;;7.10;99.90;;;;;;5001897;28;20061;-83
2022/12/08 05:45:51;;;;;;;129.82;66.93;;;7.10;99.90;;;;;;5001513;28;20034;-81
2022/12/08 05:48:29;;;;;;;105.65;56.75;;;7.10;99.90;;;;;;5012656;28;20038;-83
2022/12/08 05:50:58;;;;;;;88.28;50.45;;;7.00;99.90;;;;;;4989107;28;20092;-82
2022/12/08 05:53:26;;;;;;;81.95;47.42;;;7.10;99.90;;;;;;4981000;28;20521;-81
2022/12/08 05:55:53;;;;;;;81.55;47.13;;;7.10;99.90;;;;;;4982701;28;20047;-82
2022/12/08 05:58:23;;;;;;;75.70;45.53;;;7.20;99.90;;;;;;4992739;28;20047;-82
2022/12/08 06:00:51;;;;;;;74.93;46.20;;;7.30;99.90;;;;;;4991199;28;20542;-83
2022/12/08 06:03:19;;;;;;;67.32;43.58;;;7.30;99.90;;;;;;4984776;28;20128;-82
2022/12/08 06:05:49;;;;;;;62.40;41.63;;;7.30;99.90;;;;;;4984106;28;20547;-82
2022/12/08 06:08:18;;;;;;;66.88;44.25;;;7.30;99.90;;;;;;4974683;28;20089;-82
2022/12/08 06:10:47;;;;;;;65.40;42.25;;;7.30;99.90;;;;;;4974778;28;20415;-82
2022/12/08 06:13:16;;;;;;;69.35;46.22;;;7.30;99.90;;;;;;4984619;28;20042;-82
2022/12/08 06:15:43;;;;;;;81.13;52.35;;;7.20;99.90;;;;;;4972192;28;20101;-82
2022/12/08 06:18:13;;;;;;;73.60;50.63;;;7.20;99.90;;;;;;4987947;28;20038;-80
2022/12/08 06:20:40;;;;;;;88.20;56.28;;;7.10;99.90;;;;;;4988617;28;20031;-82
2022/12/08 06:23:09;;;;;;;78.20;53.05;;;7.20;99.90;;;;;;4990696;28;20047;-82
2022/12/08 06:25:36;;;;;;;82.78;54.42;;;7.20;99.90;;;;;;4987031;28;20038;-82
2022/12/08 06:28:05;;;;;;;100.15;65.68;;;7.10;99.90;;;;;;4984948;28;20078;-81
2022/12/08 06:30:33;;;;;;;125.43;78.43;;;7.20;99.90;;;;;;4987600;28;20050;-82
2022/12/08 06:33:00;;;;;;;115.05;69.47;;;7.20;99.90;;;;;;4952414;28;20052;-81
2022/12/08 06:35:28;;;;;;;64.68;43.90;;;7.20;99.90;;;;;;4984304;28;20039;-81
2022/12/08 06:37:55;;;;;;;74.80;48.05;;;7.10;99.90;;;;;;4969397;28;20050;-81
2022/12/08 06:40:24;;;;;;;76.18;52.08;;;7.10;99.90;;;;;;4983489;28;20050;-81
2022/12/08 06:42:51;;;;;;;82.20;55.38;;;7.20;99.90;;;;;;4983830;28;20129;-81
2022/12/08 06:45:20;;;;;;;83.45;54.47;;;7.30;99.90;;;;;;4985026;28;20402;-81
2022/12/08 06:47:47;;;;;;;90.93;61.85;;;7.30;99.90;;;;;;4985410;28;20057;-81
2022/12/08 06:50:15;;;;;;;114.07;73.20;;;7.30;99.90;;;;;;4995184;28;20046;-81
2022/12/08 06:52:42;;;;;;;110.50;66.90;;;7.30;99.90;;;;;;4986017;28;20046;-81
2022/12/08 06:55:13;;;;;;;96.43;63.65;;;7.40;99.90;;;;;;4983534;28;20042;-81
2022/12/08 06:57:41;;;;;;;80.80;52.78;;;7.40;99.90;;;;;;4984505;28;20034;-81
2022/12/08 07:00:10;;;;;;;96.22;60.22;;;7.50;99.90;;;;;;4984446;28;20109;-81
2022/12/08 07:02:37;;;;;;;103.40;65.45;;;7.60;99.90;;;;;;4985064;28;20039;-81
2022/12/08 07:05:06;;;;;;;113.60;71.45;;;7.50;99.90;;;;;;4986256;28;20061;-82
2022/12/08 07:07:33;;;;;;;116.03;70.40;;;7.50;99.90;;;;;;4967036;28;20054;-81
2022/12/08 07:10:04;;;;;;;107.32;68.18;;;7.40;99.90;;;;;;4983556;28;20069;-81
2022/12/08 07:12:32;;;;;;;114.55;71.93;;;7.40;99.90;;;;;;4983885;28;20561;-80
2022/12/08 07:15:01;;;;;;;112.82;71.80;;;7.40;99.90;;;;;;4995193;28;20247;-81
2022/12/08 07:17:29;;;;;;;104.22;67.95;;;7.50;99.90;;;;;;5003058;28;20047;-82
2022/12/08 07:19:56;;;;;;;94.78;62.10;;;7.50;99.90;;;;;;5005406;28;20050;-81
2022/12/08 07:22:23;;;;;;;102.18;62.35;;;7.60;99.90;;;;;;4995886;28;20503;-82
2022/12/08 07:24:51;;;;;;;107.72;69.80;;;7.60;99.90;;;;;;4986376;28;20042;-82
2022/12/08 07:27:22;;;;;;;127.20;79.75;;;7.60;99.90;;;;;;4983673;28;20039;-82
2022/12/08 07:29:49;;;;;;;117.78;74.95;;;7.60;99.90;;;;;;4994763;28;20105;-82
2022/12/08 07:32:20;;;;;;;107.45;66.88;;;7.70;99.90;;;;;;4983977;28;20310;-82
2022/12/08 07:34:47;;;;;;;121.70;74.97;;;7.80;99.90;;;;;;4981797;28;20054;-83
2022/12/08 07:37:16;;;;;;;115.60;73.68;;;7.80;99.90;;;;;;4986514;28;20051;-83
2022/12/08 07:39:51;;;;;;;109.70;66.72;;;7.90;99.90;;;;;;4983652;28;20035;-82
2022/12/08 07:42:19;;;;;;;72.00;49.25;;;8.00;99.90;;;;;;4991612;28;20534;-82
2022/12/08 07:44:49;;;;;;;78.53;51.30;;;8.00;99.90;;;;;;4985544;28;20042;-83
2022/12/08 07:47:18;;;;;;;72.03;48.05;;;8.10;99.90;;;;;;4983909;28;20066;-83
2022/12/08 07:49:46;;;;;;;67.18;45.53;;;8.20;99.90;;;;;;4967569;28;20047;-81
2022/12/08 07:52:14;;;;;;;62.53;43.03;;;8.40;99.90;;;;;;4984887;28;20050;-82
2022/12/08 07:54:41;;;;;;;49.10;32.10;;;8.50;99.90;;;;;;4969583;28;20528;-82
2022/12/08 08:00:23;;;;;;;54.03;36.75;;;8.80;99.90;;;;;;5106524;23;20109;-79
2022/12/08 08:02:52;;;;;;;47.22;33.72;;;8.90;99.90;;;;;;4945661;28;20054;-79
2022/12/08 08:05:20;;;;;;;49.88;34.10;;;9.00;99.90;;;;;;4945490;28;20047;-78
2022/12/08 08:07:47;;;;;;;34.35;25.38;;;8.90;99.90;;;;;;4963426;28;20106;-79
2022/12/08 08:10:14;;;;;;;38.13;28.13;;;9.00;99.90;;;;;;4970736;28;20046;-78
2022/12/08 08:12:42;;;;;;;38.45;26.85;;;9.00;99.90;;;;;;4971351;28;20043;-79
2022/12/08 08:15:11;;;;;;;41.03;28.83;;;8.90;99.90;;;;;;4971265;28;20045;-78
2022/12/08 08:17:39;;;;;;;39.22;27.25;;;8.80;99.90;;;;;;4970964;28;20049;-81
2022/12/08 08:20:09;;;;;;;41.20;27.30;;;8.70;99.90;;;;;;4970655;28;20105;-80
2022/12/08 08:22:36;;;;;;;39.17;26.63;;;8.50;99.90;;;;;;4971342;28;20097;-78
2022/12/08 08:25:04;;;;;;;39.72;27.27;;;8.70;99.90;;;;;;4971130;28;20042;-80
2022/12/08 08:27:32;;;;;;;39.78;27.98;;;8.80;99.90;;;;;;4971018;28;20049;-79
2022/12/08 08:29:59;;;;;;;39.20;27.38;;;8.90;99.90;;;;;;4970405;28;20450;-78
2022/12/08 08:32:27;;;;;;;47.25;31.75;;;9.00;99.90;;;;;;4963295;28;20065;-77
2022/12/08 08:34:54;;;;;;;43.85;29.35;;;9.00;99.90;;;;;;4971706;28;20042;-79
2022/12/08 08:37:23;;;;;;;43.97;31.77;;;8.90;99.90;;;;;;4973085;28;20038;-78
2022/12/08 08:39:50;;;;;;;46.17;32.92;;;8.90;99.90;;;;;;4952919;28;20043;-80
2022/12/08 08:42:18;;;;;;;44.03;32.30;;;8.90;99.90;;;;;;4971194;28;20043;-80
2022/12/08 08:44:45;;;;;;;48.30;33.25;;;8.90;99.90;;;;;;4971638;28;20178;-78
2022/12/08 08:47:12;;;;;;;45.63;30.95;;;9.00;99.90;;;;;;4971164;28;20494;-79
2022/12/08 08:49:40;;;;;;;49.58;34.28;;;9.00;99.90;;;;;;4969144;28;20089;-78
2022/12/08 08:52:07;;;;;;;41.85;29.40;;;9.10;99.90;;;;;;4970910;28;20050;-78
2022/12/08 08:54:36;;;;;;;40.53;28.15;;;9.10;99.90;;;;;;4970852;28;20042;-79
2022/12/08 08:57:04;;;;;;;41.38;25.42;;;9.20;99.90;;;;;;4955140;28;20047;-80
2022/12/08 08:59:31;;;;;;;38.17;25.67;;;9.10;99.90;;;;;;4973533;28;20054;-80
2022/12/08 09:01:59;;;;;;;45.53;31.80;;;9.10;99.90;;;;;;4974789;28;20042;-78
2022/12/08 09:04:26;;;;;;;52.55;36.38;;;9.10;99.90;;;;;;4974861;28;20070;-82
2022/12/08 09:06:53;;;;;;;41.72;30.25;;;9.00;99.90;;;;;;4976715;28;20108;-81
2022/12/08 09:09:21;;;;;;;44.70;30.13;;;9.00;99.90;;;;;;4975127;28;20054;-79
2022/12/08 09:11:49;;;;;;;34.35;23.08;;;9.10;99.90;;;;;;4975888;28;20074;-79
2022/12/08 09:14:17;;;;;;;30.67;22.45;;;9.20;99.90;;;;;;4976446;28;20054;-81
2022/12/08 09:16:44;;;;;;;31.13;21.25;;;9.30;99.90;;;;;;4973365;28;20050;-77
2022/12/08 09:19:12;;;;;;;32.42;23.42;;;9.40;99.90;;;;;;4971561;28;20042;-79
2022/12/08 09:21:40;;;;;;;36.55;25.52;;;9.50;99.90;;;;;;4974531;28;20567;-79
2022/12/08 09:24:09;;;;;;;32.75;24.00;;;9.50;99.90;;;;;;4974013;28;20039;-79
2022/12/08 09:26:36;;;;;;;30.10;21.92;;;9.40;99.90;;;;;;4954961;28;20098;-79
2022/12/08 09:29:05;;;;;;;30.42;22.23;;;9.40;99.90;;;;;;4972385;28;21624;-80
2022/12/08 09:31:32;;;;;;;26.35;18.30;;;9.50;99.90;;;;;;4973508;28;20096;-78
2022/12/08 09:34:00;;;;;;;28.23;19.55;;;9.40;99.90;;;;;;4973004;28;20043;-81
2022/12/08 09:36:27;;;;;;;29.23;20.15;;;9.40;99.90;;;;;;4973350;28;20066;-79
2022/12/08 09:38:55;;;;;;;37.35;25.17;;;9.40;99.90;;;;;;4972299;28;20414;-81
2022/12/08 09:41:32;;;;;;;38.60;26.45;;;9.40;99.90;;;;;;4972288;28;20042;-78
2022/12/08 09:44:08;;;;;;;26.15;19.70;;;9.40;99.90;;;;;;4955882;28;20054;-81
2022/12/08 09:46:37;;;;;;;31.35;20.98;;;9.40;99.90;;;;;;4954517;28;20077;-78
2022/12/08 09:49:09;;;;;;;27.48;21.13;;;9.40;99.90;;;;;;4972372;28;20083;-80
2022/12/08 09:51:40;;;;;;;30.15;21.63;;;9.40;99.90;;;;;;4973619;28;20089;-79
2022/12/08 09:54:15;;;;;;;30.50;21.80;;;9.30;99.90;;;;;;4972340;28;20035;-81
2022/12/08 09:56:43;;;;;;;30.90;21.95;;;9.20;99.90;;;;;;4973641;28;20043;-81
2022/12/08 09:59:22;;;;;;;33.70;23.90;;;9.20;99.90;;;;;;4955395;28;20058;-79
2022/12/08 10:01:51;;;;;;;34.28;22.52;;;9.20;99.90;;;;;;4987008;28;20058;-80
2022/12/08 10:04:24;;;;;;;31.77;21.67;;;9.20;99.90;;;;;;4985828;28;20120;-81
2022/12/08 10:07:03;;;;;;;27.92;19.35;;;9.20;99.90;;;;;;4974981;28;20042;-81
2022/12/08 10:09:38;;;;;;;28.20;18.55;;;9.10;99.90;;;;;;4973521;28;20035;-79
2022/12/08 10:12:14;;;;;;;30.75;20.08;;;9.10;99.90;;;;;;4974463;28;20042;-80
2022/12/08 10:14:46;;;;;;;26.95;18.45;;;9.10;99.90;;;;;;4974219;28;20050;-80
2022/12/08 10:17:20;;;;;;;29.10;20.70;;;9.10;99.90;;;;;;4972196;28;20046;-80
2022/12/08 10:19:49;;;;;;;32.92;22.80;;;9.00;99.90;;;;;;4972941;28;20035;-78
2022/12/08 10:22:21;;;;;;;33.70;23.77;;;8.90;99.90;;;;;;4973655;28;20073;-79
2022/12/08 10:24:57;;;;;;;41.38;27.90;;;8.90;99.90;;;;;;4983387;28;20042;-78
2022/12/08 10:27:25;;;;;;;46.15;30.17;;;8.90;99.90;;;;;;4994873;28;20062;-79
2022/12/08 10:29:54;;;;;;;52.78;35.17;;;8.90;99.90;;;;;;4994325;28;20054;-81
2022/12/08 10:32:24;;;;;;;55.00;35.15;;;8.80;99.90;;;;;;4976648;28;20074;-79
2022/12/08 10:35:04;;;;;;;51.55;36.67;;;8.80;99.90;;;;;;4975008;28;20038;-83
2022/12/08 10:37:31;;;;;;;57.40;39.47;;;8.70;99.90;;;;;;4973780;28;20051;-79
2022/12/08 10:40:05;;;;;;;66.55;44.45;;;8.60;99.90;;;;;;4975140;28;20031;-77
2022/12/08 10:42:37;;;;;;;62.25;42.28;;;8.50;99.90;;;;;;4973960;28;20051;-78
2022/12/08 10:45:22;;;;;;;67.25;44.70;;;8.50;99.90;;;;;;4979670;28;20047;-78
2022/12/08 10:47:57;;;;;;;65.20;45.20;;;8.40;99.90;;;;;;4983027;28;20035;-80
2022/12/08 10:50:30;;;;;;;60.55;40.47;;;8.50;99.90;;;;;;4965378;28;20053;-79
2022/12/08 10:52:59;;;;;;;51.47;33.75;;;8.40;99.90;;;;;;4978281;28;20221;-80
2022/12/08 10:55:27;;;;;;;56.35;38.53;;;8.30;99.90;;;;;;4949763;28;20039;-84
2022/12/08 10:57:55;;;;;;;45.83;32.55;;;8.30;99.90;;;;;;4977729;28;20118;-78
2022/12/08 11:00:26;;;;;;;46.67;32.83;;;8.20;99.90;;;;;;4971977;28;20062;-78
2022/12/08 11:02:57;;;;;;;51.85;35.42;;;8.20;99.90;;;;;;4972881;28;20046;-77
2022/12/08 11:05:29;;;;;;;57.53;37.05;;;8.20;99.90;;;;;;4972932;28;20633;-78
2022/12/08 11:07:57;;;;;;;59.75;40.78;;;8.10;99.90;;;;;;4972947;28;20035;-79
2022/12/08 11:10:36;;;;;;;54.45;35.92;;;8.20;99.90;;;;;;4972208;28;20042;-77
2022/12/08 11:13:06;;;;;;;49.33;31.85;;;8.20;99.90;;;;;;4972499;28;20474;-79
2022/12/08 11:15:38;;;;;;;44.15;31.27;;;8.20;99.90;;;;;;4954408;28;20043;-78
2022/12/08 11:18:25;;;;;;;51.92;36.58;;;8.10;99.90;;;;;;4972074;28;20050;-79
2022/12/08 11:21:08;;;;;;;61.85;43.60;;;8.10;99.90;;;;;;4970559;28;20110;-79
2022/12/08 11:23:36;;;;;;;56.65;40.15;;;8.00;99.90;;;;;;4971860;28;20085;-76
2022/12/08 11:26:12;;;;;;;56.10;37.63;;;8.00;99.90;;;;;;4971565;28;20615;-77
2022/12/08 11:28:40;;;;;;;84.65;53.65;;;8.00;99.90;;;;;;4970620;28;20042;-78
2022/12/08 11:31:22;;;;;;;86.88;52.95;;;8.00;99.90;;;;;;4953878;28;20055;-78
2022/12/08 11:33:51;;;;;;;105.30;69.00;;;8.10;99.90;;;;;;4971678;28;20130;-79
2022/12/08 11:36:22;;;;;;;105.30;68.80;;;8.10;99.90;;;;;;4971403;28;20043;-77
2022/12/08 11:38:52;;;;;;;93.18;63.03;;;8.10;99.90;;;;;;4971412;28;20481;-78
2022/12/08 11:41:22;;;;;;;86.93;58.38;;;8.10;99.90;;;;;;4971649;28;20070;-78
2022/12/08 11:43:56;;;;;;;85.55;54.78;;;8.10;99.90;;;;;;4971732;28;20417;-78
2022/12/08 11:46:32;;;;;;;99.60;63.67;;;8.00;99.90;;;;;;4971682;28;20047;-80
2022/12/08 11:49:02;;;;;;;99.47;66.78;;;7.90;99.90;;;;;;4954107;28;20065;-77
2022/12/08 11:51:32;;;;;;;127.57;86.75;;;7.90;99.90;;;;;;4971848;28;20072;-75
2022/12/08 11:54:11;;;;;;;139.38;98.03;;;8.10;99.90;;;;;;4971879;28;20042;-79
2022/12/08 11:56:42;;;;;;;140.05;92.70;;;8.10;99.90;;;;;;4971359;28;20042;-79
2022/12/08 11:59:19;;;;;;;135.98;91.18;;;8.10;99.90;;;;;;4970954;28;20067;-77
2022/12/08 12:01:48;;;;;;;115.60;78.60;;;8.10;99.90;;;;;;4971731;28;20134;-81
2022/12/08 12:04:30;;;;;;;105.93;72.45;;;8.10;99.90;;;;;;4976554;28;20047;-77
2022/12/08 12:07:39;;;;;;;103.22;73.18;;;8.00;99.90;;;;;;4973381;28;20043;-77
2022/12/08 12:10:23;;;;;;;99.13;64.32;;;8.10;99.90;;;;;;4891693;29;20418;-78
2022/12/08 12:13:04;;;;;;;97.65;64.30;;;8.10;99.90;;;;;;4891638;29;20048;-77
2022/12/08 12:16:17;;;;;;;94.70;61.25;;;8.20;99.90;;;;;;4949544;28;20434;-78
2022/12/08 12:18:47;;;;;;;86.75;56.80;;;8.20;99.90;;;;;;4970578;28;20070;-79
2022/12/08 12:21:20;;;;;;;69.80;47.35;;;8.30;99.90;;;;;;4971374;28;20087;-78
2022/12/08 12:23:53;;;;;;;71.10;48.47;;;8.30;99.90;;;;;;4971581;28;20070;-78
2022/12/08 12:26:23;;;;;;;61.72;43.95;;;8.40;99.90;;;;;;4971712;28;20478;-79
2022/12/08 12:28:53;;;;;;;63.42;43.65;;;8.50;99.90;;;;;;4970537;28;20039;-78
2022/12/08 12:31:25;;;;;;;63.42;43.60;;;8.50;99.90;;;;;;4971119;28;20042;-79
2022/12/08 12:34:05;;;;;;;58.58;40.80;;;8.50;99.90;;;;;;4970711;28;20383;-78
2022/12/08 12:36:43;;;;;;;57.50;39.47;;;8.60;99.90;;;;;;4973832;28;20058;-79
2022/12/08 12:39:13;;;;;;;55.95;38.05;;;8.70;99.90;;;;;;4976668;28;20034;-79
2022/12/08 12:41:46;;;;;;;51.30;35.53;;;8.90;99.90;;;;;;4974709;28;20047;-78
2022/12/08 12:44:39;;;;;;;50.05;35.13;;;9.10;99.90;;;;;;4971167;28;20134;-77
2022/12/08 12:47:11;;;;;;;39.05;28.80;;;9.30;99.90;;;;;;4969983;28;20103;-78
2022/12/08 12:50:08;;;;;;;37.35;28.35;;;9.20;99.90;;;;;;4970219;28;20461;-77
2022/12/08 12:52:45;;;;;;;;;;;9.40;99.90;;;;;;4953820;28;20106;-77
2022/12/08 12:55:22;;;;;;;;;;;9.50;99.90;;;;;;4971398;28;19922;-79
2022/12/08 12:57:53;;;;;;;39.83;26.25;;;9.60;99.90;;;;;;4951952;28;19929;-78
2022/12/08 13:00:22;;;;;;;37.20;27.58;;;9.70;99.90;;;;;;4969802;28;20118;-78
2022/12/08 13:02:50;;;;;;;39.47;27.42;;;9.70;99.90;;;;;;4969812;28;20063;-77